Time;durP1;ratioP1;P1;durP2;ratioP2;P2;SDS_P1;SDS_P2;PMS_P1;PMS_P2;Temp;Humidity;BMP_temperature;BMP_pressure;BME280_temperature;BME280_humidity;BME280_pressure;Samples;Min_cycle;Max_cycle;Signal;HPM_P1;HPM_P2
2023/01/06 00:00:41;;;;;;;10.43;1.58;;;17.40;1.00;;;;;;5076730;28;20040;-39
2023/01/06 00:03:08;;;;;;;8.60;2.22;;;17.40;1.00;;;;;;5094590;28;20097;-38
2023/01/06 00:05:35;;;;;;;12.27;2.92;;;17.40;1.00;;;;;;5094773;28;20548;-39
2023/01/06 00:08:02;;;;;;;10.60;1.85;;;17.40;1.00;;;;;;5090516;28;20036;-39
2023/01/06 00:10:29;;;;;;;10.25;3.05;;;17.40;1.00;;;;;;5086224;28;20032;-38
2023/01/06 00:12:55;;;;;;;8.02;1.40;;;17.40;1.00;;;;;;5094433;28;20511;-39
2023/01/06 00:15:22;;;;;;;8.05;2.13;;;17.30;1.00;;;;;;5094644;28;20138;-39
2023/01/06 00:17:49;;;;;;;6.28;1.42;;;17.30;1.00;;;;;;5094533;28;20544;-39
2023/01/06 00:20:16;;;;;;;10.73;2.22;;;17.30;1.00;;;;;;5094341;28;20043;-39
2023/01/06 00:22:43;;;;;;;7.05;3.17;;;17.20;1.00;;;;;;5094235;28;20040;-38
2023/01/06 00:25:10;;;;;;;9.70;2.00;;;17.30;1.00;;;;;;5094487;28;20051;-38
2023/01/06 00:27:38;;;;;;;10.32;1.92;;;17.20;1.00;;;;;;5094329;28;20067;-38
2023/01/06 00:30:06;;;;;;;7.25;1.63;;;17.20;1.00;;;;;;5093700;28;20123;-39
2023/01/06 00:32:34;;;;;;;8.82;2.08;;;17.20;1.00;;;;;;5094193;28;20045;-38
2023/01/06 00:35:01;;;;;;;6.20;1.30;;;17.20;1.00;;;;;;5094064;28;20093;-38
2023/01/06 00:37:27;;;;;;;6.05;1.50;;;17.20;1.00;;;;;;5094155;28;20067;-38
2023/01/06 00:39:54;;;;;;;8.77;1.83;;;17.10;1.00;;;;;;5094106;28;20079;-38
2023/01/06 00:42:23;;;;;;;7.28;1.33;;;17.10;1.00;;;;;;5093975;28;20032;-39
2023/01/06 00:44:50;;;;;;;9.23;1.45;;;17.10;1.00;;;;;;5075948;28;20074;-39
2023/01/06 00:47:18;;;;;;;10.18;2.20;;;17.10;1.00;;;;;;5093955;28;20040;-39
2023/01/06 00:49:45;;;;;;;7.13;1.77;;;17.10;1.00;;;;;;5075721;28;20062;-39
2023/01/06 00:52:13;;;;;;;6.07;1.60;;;17.10;1.00;;;;;;5075692;28;20414;-39
2023/01/06 00:54:40;;;;;;;9.00;1.60;;;17.00;1.00;;;;;;5075549;28;20062;-39
2023/01/06 00:57:07;;;;;;;5.30;1.30;;;17.00;1.00;;;;;;5093868;28;20040;-39
2023/01/06 00:59:34;;;;;;;6.40;2.20;;;17.00;1.00;;;;;;5093572;28;20542;-39
2023/01/06 01:02:01;;;;;;;7.68;1.75;;;17.00;1.00;;;;;;5075438;28;20123;-38
2023/01/06 01:04:29;;;;;;;6.93;1.58;;;17.00;1.00;;;;;;5093643;28;20461;-38
2023/01/06 01:06:56;;;;;;;12.63;2.88;;;16.90;1.00;;;;;;5093638;28;20036;-38
2023/01/06 01:09:26;;;;;;;9.50;1.25;;;16.90;1.00;;;;;;5093623;28;20051;-38
2023/01/06 01:12:11;;;;;;;10.57;1.92;;;16.90;1.00;;;;;;5075240;28;20044;-38
2023/01/06 01:14:39;;;;;;;9.63;1.50;;;16.90;1.00;;;;;;5075099;28;20051;-38
2023/01/06 01:17:08;;;;;;;4.15;1.45;;;16.90;1.00;;;;;;5075248;28;20052;-38
2023/01/06 01:19:35;;;;;;;9.45;1.50;;;16.90;1.00;;;;;;5075023;28;20044;-38
2023/01/06 01:22:03;;;;;;;7.30;2.20;;;16.80;1.00;;;;;;5093357;28;20399;-38
2023/01/06 01:24:30;;;;;;;10.52;2.42;;;16.80;1.00;;;;;;5093049;28;20040;-38
2023/01/06 01:26:56;;;;;;;6.50;1.75;;;16.80;1.00;;;;;;5093127;28;20552;-38
2023/01/06 01:29:23;;;;;;;10.30;2.40;;;16.80;1.00;;;;;;5082413;28;20499;-39
2023/01/06 01:31:50;;;;;;;7.50;1.73;;;16.80;1.00;;;;;;5072901;28;20044;-38
2023/01/06 01:34:18;;;;;;;7.40;1.95;;;16.80;1.00;;;;;;5072646;28;20044;-38
2023/01/06 01:36:46;;;;;;;7.97;1.42;;;16.80;1.00;;;;;;5054843;28;20044;-39
2023/01/06 01:39:16;;;;;;;9.23;1.58;;;16.70;1.00;;;;;;5072658;28;20041;-38
2023/01/06 01:41:43;;;;;;;7.57;1.80;;;16.70;1.00;;;;;;5053652;28;20564;-38
2023/01/06 01:44:50;;;;;;;13.50;3.15;;;16.70;1.00;;;;;;5054589;28;20122;-38
2023/01/06 01:47:20;;;;;;;5.72;1.45;;;16.70;1.00;;;;;;5054607;28;20507;-39
2023/01/06 01:49:50;;;;;;;12.85;3.08;;;16.70;1.00;;;;;;5072473;28;20045;-39
2023/01/06 01:52:19;;;;;;;5.80;2.00;;;16.70;1.00;;;;;;5072344;28;20079;-39
2023/01/06 01:54:47;;;;;;;9.10;1.63;;;16.70;1.00;;;;;;5054463;28;20101;-38
2023/01/06 01:57:23;;;;;;;7.18;2.03;;;16.60;1.00;;;;;;5072462;28;20563;-38
2023/01/06 01:59:50;;;;;;;8.05;1.85;;;16.60;1.00;;;;;;5054315;28;20045;-39
2023/01/06 02:02:18;;;;;;;7.45;1.83;;;16.60;1.00;;;;;;5054049;28;20049;-39
2023/01/06 02:04:50;;;;;;;7.78;1.85;;;16.60;1.00;;;;;;5054080;28;20049;-38
2023/01/06 02:07:19;;;;;;;4.88;1.60;;;16.60;1.00;;;;;;5054320;28;20063;-39
2023/01/06 02:10:14;;;;;;;7.60;1.15;;;16.60;1.00;;;;;;5072261;28;20463;-38
2023/01/06 02:12:43;;;;;;;8.85;1.17;;;16.60;1.00;;;;;;5071767;28;20063;-38
2023/01/06 02:15:14;;;;;;;9.82;2.42;;;16.60;1.00;;;;;;5054193;28;20056;-38
2023/01/06 02:18:27;;;;;;;11.30;2.00;;;16.50;1.00;;;;;;5054062;28;20056;-39
2023/01/06 02:21:13;;;;;;;6.57;2.03;;;16.50;1.00;;;;;;5034186;28;20044;-38
2023/01/06 02:24:12;;;;;;;8.45;1.55;;;16.50;1.00;;;;;;5071811;28;20091;-38
2023/01/06 02:26:56;;;;;;;6.70;1.88;;;16.50;1.00;;;;;;5054028;28;20048;-38
2023/01/06 02:30:09;;;;;;;6.07;2.00;;;16.50;1.00;;;;;;5054005;28;20049;-39
2023/01/06 02:32:49;;;;;;;5.60;2.28;;;16.40;1.00;;;;;;5027504;28;20091;-38
2023/01/06 02:35:31;;;;;;;6.35;1.30;;;16.50;1.00;;;;;;5054023;28;20040;-38
2023/01/06 02:38:27;;;;;;;8.43;2.10;;;16.40;1.00;;;;;;5053743;28;20076;-38
2023/01/06 02:41:09;;;;;;;10.68;2.13;;;16.40;1.00;;;;;;5053866;28;20048;-38
2023/01/06 02:43:47;;;;;;;8.55;1.67;;;16.40;1.00;;;;;;5053547;28;20041;-39
2023/01/06 02:46:21;;;;;;;6.25;1.25;;;16.40;1.00;;;;;;5053966;28;20510;-38
2023/01/06 02:48:51;;;;;;;10.05;1.58;;;16.40;1.00;;;;;;5053687;28;20049;-39
2023/01/06 02:51:23;;;;;;;8.75;2.25;;;16.40;1.00;;;;;;5053751;28;20278;-38
2023/01/06 02:54:08;;;;;;;5.05;1.50;;;16.40;1.00;;;;;;5056314;28;20464;-39
2023/01/06 02:56:41;;;;;;;;;;;16.40;1.00;;;;;;5076260;28;20056;-39
2023/01/06 02:59:24;;;;;;;6.43;1.25;;;16.40;1.00;;;;;;5057596;28;19921;-38
2023/01/06 03:01:53;;;;;;;6.47;1.30;;;16.30;1.00;;;;;;5058038;28;20553;-39
2023/01/06 03:04:37;;;;;;;6.50;1.38;;;16.30;1.00;;;;;;5057540;28;20051;-38
2023/01/06 03:07:05;;;;;;;4.63;1.42;;;16.30;1.00;;;;;;5057703;28;20044;-39
2023/01/06 03:09:37;;;;;;;7.97;1.85;;;16.30;1.00;;;;;;5057580;28;20057;-39
2023/01/06 03:12:21;;;;;;;7.57;2.15;;;16.30;1.00;;;;;;5080131;22;20052;-37
2023/01/06 03:14:51;;;;;;;7.97;1.80;;;16.30;1.00;;;;;;5048535;28;20128;-37
2023/01/06 03:17:19;;;;;;;6.80;1.65;;;16.30;1.00;;;;;;5067021;28;20041;-37
2023/01/06 03:19:46;;;;;;;6.53;1.25;;;16.30;1.00;;;;;;5042802;28;20079;-37
2023/01/06 03:22:16;;;;;;;6.40;1.50;;;16.30;1.00;;;;;;5048807;28;20557;-37
2023/01/06 03:24:44;;;;;;;6.57;1.10;;;16.30;1.00;;;;;;5075196;28;20119;-37
2023/01/06 03:27:11;;;;;;;5.90;1.58;;;16.30;1.00;;;;;;5075331;28;20040;-37
2023/01/06 03:29:39;;;;;;;4.35;1.25;;;16.30;1.00;;;;;;5049480;28;20088;-37
2023/01/06 03:32:29;;;;;;;5.22;1.60;;;16.30;1.00;;;;;;5051870;28;20534;-37
2023/01/06 03:35:18;;;;;;;6.45;1.20;;;16.30;1.00;;;;;;5057150;28;20044;-38
2023/01/06 03:38:42;;;;;;;5.72;2.28;;;16.20;1.00;;;;;;5057040;28;20131;-38
2023/01/06 03:44:52;;;;;;;6.80;2.15;;;16.20;1.00;;;;;;4954241;29;20102;-38
2023/01/06 03:47:36;;;;;;;7.40;1.33;;;16.20;1.00;;;;;;4994555;28;20057;-37
2023/01/06 03:50:25;;;;;;;4.90;1.67;;;16.20;1.00;;;;;;5017131;28;20045;-38
2023/01/06 03:53:20;;;;;;;3.08;0.98;;;16.20;1.00;;;;;;5016748;28;20412;-38
2023/01/06 03:55:50;;;;;;;;;;;16.20;1.00;;;;;;5014500;28;20136;-38
2023/01/06 03:58:19;;;;;;;6.35;1.10;;;16.20;1.00;;;;;;5017152;28;19921;-38
2023/01/06 04:00:48;;;;;;;5.13;1.30;;;16.10;1.00;;;;;;5016723;28;20043;-38
2023/01/06 04:03:15;;;;;;;5.90;1.52;;;16.10;1.00;;;;;;5016489;28;20038;-38
2023/01/06 04:05:43;;;;;;;4.88;1.70;;;16.10;1.00;;;;;;5015909;28;20069;-38
2023/01/06 04:08:10;;;;;;;8.13;1.63;;;16.10;1.00;;;;;;5034588;28;20053;-37
2023/01/06 04:10:39;;;;;;;6.18;1.55;;;16.10;1.00;;;;;;5016805;28;20058;-37
2023/01/06 04:13:06;;;;;;;3.88;1.20;;;16.10;1.00;;;;;;5016222;28;20054;-37
2023/01/06 04:15:34;;;;;;;9.55;1.48;;;16.10;1.00;;;;;;5033079;28;20049;-37
2023/01/06 04:18:05;;;;;;;8.90;1.52;;;16.10;1.00;;;;;;5016639;28;20060;-37
2023/01/06 04:20:35;;;;;;;5.00;1.98;;;16.10;1.00;;;;;;5016420;28;20045;-37
2023/01/06 04:23:25;;;;;;;8.57;2.15;;;16.10;1.00;;;;;;5033903;28;20463;-37
2023/01/06 04:25:51;;;;;;;4.15;1.27;;;16.10;1.00;;;;;;5034244;28;20088;-37
2023/01/06 04:28:26;;;;;;;5.25;1.00;;;16.10;1.00;;;;;;5032857;28;20527;-37
2023/01/06 04:31:00;;;;;;;6.60;1.40;;;16.10;1.00;;;;;;5034097;28;20055;-37
2023/01/06 04:33:28;;;;;;;5.55;1.23;;;16.10;1.00;;;;;;5032565;28;20091;-37
2023/01/06 04:35:59;;;;;;;6.35;1.58;;;16.10;1.00;;;;;;5016344;28;20041;-37
2023/01/06 04:38:26;;;;;;;6.07;1.85;;;16.10;1.00;;;;;;5016391;28;20497;-37
2023/01/06 04:40:53;;;;;;;12.10;1.90;;;16.00;1.00;;;;;;5033757;28;20048;-37
2023/01/06 04:43:20;;;;;;;6.30;1.45;;;16.00;1.00;;;;;;5033810;28;20045;-37
2023/01/06 04:45:47;;;;;;;7.38;2.08;;;16.00;1.00;;;;;;5033822;28;20366;-37
2023/01/06 04:48:14;;;;;;;4.78;1.52;;;16.00;1.00;;;;;;5033838;28;20072;-37
2023/01/06 04:50:41;;;;;;;6.75;1.38;;;16.00;1.00;;;;;;5015973;28;20049;-37
2023/01/06 04:53:10;;;;;;;7.22;1.48;;;16.00;1.00;;;;;;5033435;28;20158;-38
2023/01/06 04:55:38;;;;;;;8.05;2.15;;;16.00;1.00;;;;;;5033519;28;20115;-38
2023/01/06 04:58:04;;;;;;;6.18;1.48;;;16.00;1.00;;;;;;5033738;28;20095;-37
2023/01/06 05:00:31;;;;;;;8.52;1.20;;;16.00;1.00;;;;;;5033400;28;20087;-37
2023/01/06 05:02:58;;;;;;;7.03;1.60;;;16.00;1.00;;;;;;5015503;28;20096;-37
2023/01/06 05:05:25;;;;;;;4.50;1.92;;;16.00;1.00;;;;;;5033444;28;20382;-37
2023/01/06 05:07:54;;;;;;;5.38;1.17;;;16.00;1.00;;;;;;5033501;28;20050;-37
2023/01/06 05:10:21;;;;;;;10.63;1.20;;;16.00;1.00;;;;;;5033128;28;20049;-37
2023/01/06 05:12:48;;;;;;;11.77;1.92;;;16.00;1.00;;;;;;5050019;28;20124;-37
2023/01/06 05:15:15;;;;;;;7.28;1.60;;;16.00;1.00;;;;;;5052033;28;20045;-37
2023/01/06 05:17:41;;;;;;;4.95;1.58;;;16.00;1.00;;;;;;5053769;28;20040;-37
2023/01/06 05:20:09;;;;;;;10.85;1.85;;;15.90;1.00;;;;;;5064799;28;20129;-37
2023/01/06 05:22:36;;;;;;;7.10;1.13;;;15.90;1.00;;;;;;5071426;28;20036;-37
2023/01/06 05:25:03;;;;;;;6.95;1.88;;;15.90;1.00;;;;;;5068607;28;20554;-37
2023/01/06 05:27:30;;;;;;;9.88;1.77;;;15.90;1.00;;;;;;5062445;28;20492;-37
2023/01/06 05:29:57;;;;;;;8.25;1.75;;;15.90;1.00;;;;;;5072970;28;20048;-36
2023/01/06 05:32:23;;;;;;;8.20;1.75;;;15.90;1.00;;;;;;5072661;28;20044;-36
2023/01/06 05:34:50;;;;;;;10.90;1.65;;;15.90;1.00;;;;;;5066316;28;20041;-37
2023/01/06 05:37:17;;;;;;;6.05;1.00;;;15.90;1.00;;;;;;5046292;28;20094;-37
2023/01/06 05:39:44;;;;;;;5.28;1.50;;;15.90;1.00;;;;;;5072718;28;20040;-37
2023/01/06 05:42:10;;;;;;;10.45;2.20;;;15.90;1.00;;;;;;5072411;28;20044;-37
2023/01/06 05:44:37;;;;;;;9.05;1.10;;;15.90;1.00;;;;;;5054460;28;20495;-37
2023/01/06 05:47:04;;;;;;;8.10;1.58;;;15.90;1.00;;;;;;5072609;28;20047;-37
2023/01/06 05:49:31;;;;;;;9.25;1.95;;;15.90;1.00;;;;;;5072554;28;20067;-37
2023/01/06 05:51:57;;;;;;;5.82;1.10;;;15.90;1.00;;;;;;5072277;28;20051;-36
2023/01/06 05:54:24;;;;;;;6.40;1.52;;;15.90;1.00;;;;;;5053034;28;20033;-36
2023/01/06 05:56:51;;;;;;;10.40;1.40;;;15.90;1.00;;;;;;5056197;28;20405;-35
2023/01/06 05:59:18;;;;;;;8.68;1.63;;;15.90;1.00;;;;;;5060479;28;20396;-37
2023/01/06 06:01:44;;;;;;;6.90;1.58;;;15.90;1.00;;;;;;5070883;28;20048;-37
2023/01/06 06:04:12;;;;;;;6.93;1.65;;;15.90;1.00;;;;;;5070962;28;20047;-37
2023/01/06 06:06:39;;;;;;;9.20;1.85;;;15.90;1.00;;;;;;5072266;28;20111;-37
2023/01/06 06:09:05;;;;;;;7.97;2.00;;;15.90;1.00;;;;;;5072344;28;20484;-37
2023/01/06 06:11:32;;;;;;;8.48;1.85;;;15.90;1.00;;;;;;5054165;28;20071;-36
2023/01/06 06:13:59;;;;;;;10.85;2.17;;;15.90;1.00;;;;;;5071960;28;20045;-37
2023/01/06 06:16:27;;;;;;;6.88;1.30;;;15.90;1.00;;;;;;5072177;28;20454;-36
2023/01/06 06:18:56;;;;;;;8.50;2.13;;;15.90;1.00;;;;;;5072096;28;20115;-37
2023/01/06 06:21:28;;;;;;;9.65;2.35;;;15.90;1.00;;;;;;5071793;28;20055;-37
2023/01/06 06:23:57;;;;;;;3.15;1.63;;;15.90;1.00;;;;;;5071836;28;20041;-37
2023/01/06 06:26:24;;;;;;;3.97;1.65;;;15.80;1.00;;;;;;5054257;28;20044;-37
2023/01/06 06:28:51;;;;;;;10.82;2.08;;;15.80;1.00;;;;;;5071387;28;20425;-36
2023/01/06 06:31:21;;;;;;;5.22;1.65;;;15.80;1.00;;;;;;5071784;28;20105;-36
2023/01/06 06:33:52;;;;;;;8.05;1.85;;;15.80;1.00;;;;;;5071717;28;20059;-36
2023/01/06 06:36:19;;;;;;;7.93;1.88;;;15.80;1.00;;;;;;5053837;28;20053;-36
2023/01/06 06:38:48;;;;;;;7.90;1.45;;;15.80;1.00;;;;;;5072027;28;20040;-36
2023/01/06 06:41:16;;;;;;;2.50;1.10;;;15.80;1.00;;;;;;5071597;28;20040;-37
2023/01/06 06:43:43;;;;;;;10.63;2.53;;;15.80;1.00;;;;;;5071656;28;20068;-37
2023/01/06 06:46:10;;;;;;;4.90;1.60;;;15.80;1.00;;;;;;5071701;28;20119;-37
2023/01/06 06:48:37;;;;;;;3.25;1.10;;;15.80;1.00;;;;;;5071792;28;20041;-37
2023/01/06 06:51:07;;;;;;;4.30;1.60;;;15.80;1.00;;;;;;5071794;28;20040;-37
2023/01/06 06:53:34;;;;;;;7.47;1.80;;;15.80;1.00;;;;;;5071704;28;20075;-37
2023/01/06 06:56:02;;;;;;;8.02;1.50;;;15.80;1.00;;;;;;5071648;28;20044;-38
2023/01/06 06:58:29;;;;;;;9.20;1.35;;;15.80;1.00;;;;;;5071557;28;20044;-37
2023/01/06 07:00:56;;;;;;;5.10;1.27;;;15.80;1.00;;;;;;5053699;28;20068;-38
2023/01/06 07:03:24;;;;;;;6.00;1.65;;;15.80;1.00;;;;;;5071356;28;20087;-38
2023/01/06 07:05:52;;;;;;;8.50;1.50;;;15.80;1.00;;;;;;5071586;28;20098;-38
2023/01/06 07:08:19;;;;;;;5.85;1.17;;;15.70;1.00;;;;;;5071653;28;20400;-37
2023/01/06 07:10:46;;;;;;;4.93;1.08;;;15.70;1.00;;;;;;5053389;28;20127;-37
2023/01/06 07:13:12;;;;;;;6.15;1.58;;;15.70;1.00;;;;;;5070960;28;20113;-38
2023/01/06 07:15:39;;;;;;;6.53;1.90;;;15.70;1.00;;;;;;5071774;28;20059;-38
2023/01/06 07:18:06;;;;;;;4.20;1.55;;;15.70;1.00;;;;;;5071503;28;20040;-37
2023/01/06 07:20:35;;;;;;;5.95;1.42;;;15.70;1.00;;;;;;5071455;28;20119;-37
2023/01/06 07:23:03;;;;;;;6.40;1.67;;;15.70;1.00;;;;;;5071105;28;20041;-37
2023/01/06 07:25:30;;;;;;;9.27;1.42;;;15.70;1.00;;;;;;5071218;28;20120;-38
2023/01/06 07:28:04;;;;;;;7.38;1.17;;;15.70;1.00;;;;;;5071504;28;20041;-38
2023/01/06 07:30:31;;;;;;;4.60;1.35;;;15.70;1.00;;;;;;5071371;28;20044;-38
2023/01/06 07:32:59;;;;;;;5.15;1.38;;;15.70;1.00;;;;;;5071100;28;20055;-38
2023/01/06 07:35:26;;;;;;;6.82;1.70;;;15.70;1.00;;;;;;5071340;28;20094;-38
2023/01/06 07:37:53;;;;;;;8.98;1.50;;;15.70;1.00;;;;;;5071406;28;20076;-38
2023/01/06 07:40:19;;;;;;;6.35;1.35;;;15.70;1.00;;;;;;5074331;28;20105;-38
2023/01/06 07:42:46;;;;;;;7.57;1.30;;;15.70;1.00;;;;;;5074679;28;20497;-38
2023/01/06 07:45:13;;;;;;;10.52;1.83;;;15.70;1.00;;;;;;5074895;28;20051;-38
2023/01/06 07:47:40;;;;;;;5.68;1.02;;;15.70;1.00;;;;;;5074948;28;20033;-38
2023/01/06 07:50:07;;;;;;;6.95;1.27;;;15.70;1.00;;;;;;5071612;28;20553;-38
2023/01/06 07:52:34;;;;;;;5.57;1.23;;;15.60;1.00;;;;;;5052470;28;20044;-38
2023/01/06 07:55:01;;;;;;;6.93;1.80;;;15.60;1.00;;;;;;5069719;28;20052;-38
2023/01/06 07:57:29;;;;;;;2.67;1.17;;;15.60;1.00;;;;;;5068748;28;20044;-37
2023/01/06 07:59:56;;;;;;;4.78;1.30;;;15.60;1.00;;;;;;5074329;28;20319;-37
2023/01/06 08:02:23;;;;;;;2.97;1.50;;;15.60;1.00;;;;;;5074177;28;20048;-37
2023/01/06 08:05:10;;;;;;;10.80;1.27;;;15.60;1.00;;;;;;5074469;28;20045;-37
2023/01/06 08:07:45;;;;;;;4.03;0.88;;;15.60;1.00;;;;;;5074527;28;20109;-37
2023/01/06 08:10:19;;;;;;;2.95;1.10;;;15.60;1.00;;;;;;5074430;28;20068;-37
2023/01/06 08:12:54;;;;;;;5.13;1.08;;;15.60;1.00;;;;;;5073838;28;20110;-37
2023/01/06 08:15:21;;;;;;;5.00;1.20;;;15.60;1.00;;;;;;5074438;28;20068;-37
2023/01/06 08:17:51;;;;;;;6.93;1.50;;;15.60;1.00;;;;;;5074140;28;20055;-37
2023/01/06 08:20:19;;;;;;;6.30;1.20;;;15.60;1.00;;;;;;5074277;28;20040;-37
2023/01/06 08:22:46;;;;;;;4.95;1.17;;;15.60;1.00;;;;;;5073873;28;20040;-37
2023/01/06 08:25:12;;;;;;;4.28;1.20;;;15.60;1.00;;;;;;5074105;28;20407;-37
2023/01/06 08:27:39;;;;;;;6.85;1.48;;;15.60;1.00;;;;;;5074172;28;20071;-38
2023/01/06 08:30:07;;;;;;;6.38;1.63;;;15.60;1.00;;;;;;5074033;28;20041;-36
2023/01/06 08:32:34;;;;;;;4.35;1.38;;;15.60;1.00;;;;;;5073746;28;20036;-37
2023/01/06 08:35:01;;;;;;;4.22;0.73;;;15.60;1.00;;;;;;5074020;28;20557;-37
2023/01/06 08:37:27;;;;;;;2.03;1.05;;;15.60;1.00;;;;;;5073838;28;20102;-37
2023/01/06 08:39:55;;;;;;;7.75;1.27;;;15.60;1.00;;;;;;5074019;28;20037;-37
2023/01/06 08:42:22;;;;;;;6.95;0.98;;;15.60;1.00;;;;;;5073412;28;20064;-37
2023/01/06 08:44:49;;;;;;;6.30;1.77;;;15.60;1.00;;;;;;5073589;28;20115;-37
2023/01/06 08:47:15;;;;;;;4.55;1.67;;;15.60;1.00;;;;;;5073821;28;20407;-37
2023/01/06 08:49:42;;;;;;;3.85;0.77;;;15.60;1.00;;;;;;5073781;28;20385;-36
2023/01/06 08:52:09;;;;;;;4.63;1.20;;;15.50;1.00;;;;;;5073019;28;20530;-36
2023/01/06 08:54:36;;;;;;;4.88;1.25;;;15.50;1.00;;;;;;5073456;28;20549;-36
2023/01/06 08:57:03;;;;;;;4.82;1.08;;;15.50;1.00;;;;;;5055582;28;20044;-37
2023/01/06 08:59:29;;;;;;;4.50;0.95;;;15.50;1.00;;;;;;5074046;28;20041;-37
2023/01/06 09:01:56;;;;;;;7.30;0.93;;;15.50;1.00;;;;;;5055467;28;20041;-37
2023/01/06 09:04:23;;;;;;;4.25;0.88;;;15.50;1.00;;;;;;5073218;28;20041;-37
2023/01/06 09:06:50;;;;;;;5.22;1.05;;;15.50;1.00;;;;;;5073358;28;20049;-37
2023/01/06 09:09:16;;;;;;;4.25;1.45;;;15.50;1.00;;;;;;5073253;28;20067;-37
2023/01/06 09:11:44;;;;;;;6.10;1.20;;;15.50;1.00;;;;;;5073144;28;20072;-37
2023/01/06 09:14:14;;;;;;;5.15;0.85;;;15.50;1.00;;;;;;5072715;28;20048;-37
2023/01/06 09:16:41;;;;;;;3.55;0.65;;;15.50;1.00;;;;;;5073207;28;20090;-37
2023/01/06 09:19:11;;;;;;;6.68;0.95;;;15.50;1.00;;;;;;5073191;28;20117;-37
2023/01/06 09:21:41;;;;;;;6.35;2.13;;;15.50;1.00;;;;;;5072880;28;20044;-37
2023/01/06 09:24:12;;;;;;;4.80;1.08;;;15.50;1.00;;;;;;5072819;28;20041;-37
2023/01/06 09:26:39;;;;;;;6.18;1.00;;;15.50;1.00;;;;;;5072896;28;20106;-37
2023/01/06 09:29:06;;;;;;;4.25;0.55;;;15.50;1.00;;;;;;5072877;28;20040;-38
2023/01/06 09:31:33;;;;;;;7.15;1.33;;;15.50;1.00;;;;;;5072823;28;20040;-38
2023/01/06 09:34:00;;;;;;;7.53;1.58;;;15.50;1.00;;;;;;5072600;28;20490;-38
2023/01/06 09:36:28;;;;;;;4.70;1.30;;;15.50;1.00;;;;;;5072719;28;20044;-37
2023/01/06 09:38:55;;;;;;;3.20;0.68;;;15.60;1.00;;;;;;5072525;28;20408;-37
2023/01/06 09:41:51;;;;;;;6.80;1.42;;;15.60;1.00;;;;;;5072617;28;20657;-38
2023/01/06 09:44:43;;;;;;;4.63;0.80;;;15.60;1.00;;;;;;5069052;28;20072;-38
2023/01/06 09:47:12;;;;;;;3.30;1.02;;;15.60;1.00;;;;;;5072551;28;20041;-37
2023/01/06 09:49:43;;;;;;;3.15;0.60;;;15.60;1.00;;;;;;5072591;28;20453;-37
2023/01/06 09:52:33;;;;;;;2.95;1.60;;;15.60;1.00;;;;;;5072356;28;20072;-37
2023/01/06 09:55:17;;;;;;;5.05;1.08;;;15.60;1.00;;;;;;5072328;28;20040;-37
2023/01/06 09:58:12;;;;;;;2.38;0.77;;;15.60;1.00;;;;;;5072370;28;20041;-37
2023/01/06 10:00:41;;;;;;;6.03;1.70;;;15.60;1.00;;;;;;5072279;28;20048;-38
2023/01/06 10:03:13;;;;;;;5.65;0.95;;;15.60;1.00;;;;;;5070978;28;20082;-38
2023/01/06 10:06:03;;;;;;;3.47;0.88;;;15.60;1.00;;;;;;5072396;28;20044;-38
2023/01/06 10:08:49;;;;;;;4.88;1.02;;;15.60;1.00;;;;;;5032972;28;20453;-38
2023/01/06 10:11:55;;;;;;;7.30;0.60;;;15.60;1.00;;;;;;5072135;28;20079;-38
2023/01/06 10:14:37;;;;;;;5.28;0.82;;;15.60;1.00;;;;;;5071586;28;20044;-38
2023/01/06 10:17:09;;;;;;;4.55;0.52;;;15.60;1.00;;;;;;5072093;28;20044;-38
2023/01/06 10:19:52;;;;;;;6.05;1.15;;;15.70;1.00;;;;;;5072423;28;20036;-36
2023/01/06 10:22:22;;;;;;;2.63;0.60;;;15.70;1.00;;;;;;5053842;28;20433;-37
2023/01/06 10:25:00;;;;;;;5.40;1.05;;;15.70;1.00;;;;;;5071748;28;20045;-37
2023/01/06 10:27:41;;;;;;;6.32;1.48;;;15.70;1.00;;;;;;5071867;28;20044;-37
2023/01/06 10:30:24;;;;;;;3.55;0.60;;;15.70;1.00;;;;;;5071986;28;20468;-37
2023/01/06 10:32:57;;;;;;;4.85;0.82;;;15.70;1.00;;;;;;5071160;28;20048;-37
2023/01/06 10:35:27;;;;;;;6.07;1.00;;;15.70;1.00;;;;;;5071786;28;20131;-37
2023/01/06 10:38:12;;;;;;;5.47;1.52;;;15.70;1.00;;;;;;5071851;28;20127;-36
2023/01/06 10:44:11;;;;;;;5.95;0.95;;;15.70;1.00;;;;;;5071194;28;20140;-38
2023/01/06 10:46:57;;;;;;;5.43;1.38;;;15.80;1.00;;;;;;5071648;28;20040;-37
2023/01/06 10:49:27;;;;;;;3.95;2.25;;;15.80;1.00;;;;;;5071690;28;20059;-38
2023/01/06 10:51:59;;;;;;;6.15;1.13;;;15.80;1.00;;;;;;5053397;28;20067;-37
2023/01/06 10:54:32;;;;;;;10.60;1.67;;;15.80;1.00;;;;;;5071492;28;20054;-37
2023/01/06 10:57:03;;;;;;;4.60;1.20;;;15.80;1.00;;;;;;5071622;28;20120;-37
2023/01/06 10:59:30;;;;;;;9.02;1.02;;;15.80;1.00;;;;;;5071817;28;20055;-36
2023/01/06 11:01:57;;;;;;;5.70;0.93;;;15.80;1.00;;;;;;5071415;28;20044;-37
2023/01/06 11:04:26;;;;;;;4.38;1.17;;;15.80;1.00;;;;;;5071235;28;20045;-37
2023/01/06 11:06:59;;;;;;;3.47;1.10;;;15.80;1.00;;;;;;5071491;28;20120;-37
2023/01/06 11:09:35;;;;;;;7.20;1.17;;;15.80;1.00;;;;;;5071659;28;20060;-37
2023/01/06 11:12:12;;;;;;;4.35;0.77;;;15.80;1.00;;;;;;5071279;28;20041;-38
2023/01/06 11:14:40;;;;;;;7.28;1.17;;;15.80;1.00;;;;;;5073577;28;20082;-37
2023/01/06 11:17:13;;;;;;;4.25;0.77;;;15.80;1.00;;;;;;5075449;28;20048;-37
2023/01/06 11:19:45;;;;;;;4.72;0.60;;;15.80;1.00;;;;;;5075477;28;20048;-37
2023/01/06 11:22:35;;;;;;;7.07;1.35;;;15.80;1.00;;;;;;5075129;28;20102;-37
2023/01/06 11:25:03;;;;;;;6.18;1.40;;;15.80;1.00;;;;;;5075184;28;20045;-37
2023/01/06 11:27:30;;;;;;;2.60;0.77;;;15.80;1.00;;;;;;5057449;28;20072;-37
2023/01/06 11:29:57;;;;;;;5.32;0.90;;;15.80;1.00;;;;;;5075302;28;20123;-37
2023/01/06 11:32:27;;;;;;;3.50;0.95;;;15.80;1.00;;;;;;5074850;28;20102;-37
2023/01/06 11:35:00;;;;;;;6.43;0.98;;;15.80;1.00;;;;;;5075062;28;20052;-37
2023/01/06 11:37:37;;;;;;;4.57;1.40;;;15.80;1.00;;;;;;5074974;28;20040;-36
2023/01/06 11:40:23;;;;;;;7.93;1.15;;;15.80;1.00;;;;;;5057369;28;20055;-38
2023/01/06 11:42:53;;;;;;;4.68;1.10;;;15.80;1.00;;;;;;5074485;28;20036;-37
2023/01/06 11:45:38;;;;;;;7.15;1.98;;;15.80;1.00;;;;;;5075050;28;20079;-37
2023/01/06 11:48:14;;;;;;;3.47;0.57;;;15.80;1.00;;;;;;5074770;28;20669;-36
2023/01/06 11:50:53;;;;;;;3.17;1.65;;;15.80;1.00;;;;;;5074826;28;20044;-37
2023/01/06 11:53:23;;;;;;;11.23;1.95;;;15.80;1.00;;;;;;5074454;28;20041;-37
2023/01/06 11:55:55;;;;;;;4.82;0.85;;;15.80;1.00;;;;;;5074789;28;20040;-37
2023/01/06 11:58:31;;;;;;;8.27;0.95;;;15.80;1.00;;;;;;5074734;28;20048;-37
2023/01/06 12:01:24;;;;;;;7.55;1.13;;;15.80;1.00;;;;;;5074547;28;20450;-38
2023/01/06 12:03:59;;;;;;;4.70;1.23;;;15.80;1.00;;;;;;5074437;28;20415;-36
2023/01/06 12:06:39;;;;;;;2.75;0.90;;;15.80;1.00;;;;;;5074554;28;20043;-37
2023/01/06 12:09:39;;;;;;;6.90;0.80;;;15.80;1.00;;;;;;5074406;28;20071;-37
2023/01/06 12:12:10;;;;;;;9.18;1.15;;;15.80;1.00;;;;;;5073167;28;20056;-37
2023/01/06 12:14:38;;;;;;;4.45;1.73;;;15.80;1.00;;;;;;5074231;28;20057;-37
2023/01/06 12:17:08;;;;;;;3.88;1.17;;;15.70;1.00;;;;;;5074266;28;20415;-37
2023/01/06 12:19:50;;;;;;;3.17;1.20;;;15.70;1.00;;;;;;5074301;28;20565;-38
2023/01/06 12:22:52;;;;;;;8.13;1.40;;;15.80;1.00;;;;;;5073932;28;20090;-37
2023/01/06 12:25:26;;;;;;;7.50;1.60;;;15.70;1.00;;;;;;5059357;28;20101;-37
2023/01/06 12:28:03;;;;;;;2.67;0.57;;;15.70;1.00;;;;;;5074176;28;20036;-37
2023/01/06 12:30:44;;;;;;;3.95;1.33;;;15.70;1.00;;;;;;5074178;28;20048;-37
2023/01/06 12:33:42;;;;;;;2.92;0.73;;;15.70;1.00;;;;;;5073774;28;20050;-38
2023/01/06 12:36:29;;;;;;;5.40;1.17;;;15.70;1.00;;;;;;5055773;28;20048;-38
2023/01/06 12:39:10;;;;;;;6.60;1.60;;;15.70;1.00;;;;;;5074047;28;20041;-38
2023/01/06 12:41:54;;;;;;;4.55;1.95;;;15.70;1.00;;;;;;5073758;28;20040;-38
2023/01/06 12:44:20;;;;;;;5.63;1.05;;;15.70;1.00;;;;;;5073556;28;20090;-37
2023/01/06 12:46:47;;;;;;;5.50;1.75;;;15.70;1.00;;;;;;5073824;28;20062;-37
2023/01/06 12:49:36;;;;;;;7.25;1.10;;;15.70;1.00;;;;;;5073751;28;20113;-37
2023/01/06 12:52:07;;;;;;;6.10;0.80;;;15.70;1.00;;;;;;5073612;28;20419;-37
2023/01/06 12:54:35;;;;;;;5.75;0.80;;;15.70;1.00;;;;;;5073568;28;20047;-38
2023/01/06 12:57:41;;;;;;;4.97;1.15;;;15.70;1.00;;;;;;5055746;28;20048;-37
2023/01/06 13:00:42;;;;;;;3.50;1.15;;;15.70;1.00;;;;;;5073687;28;20036;-37
2023/01/06 13:03:32;;;;;;;5.63;1.05;;;15.70;1.00;;;;;;5072878;28;20474;-37
2023/01/06 13:06:34;;;;;;;3.38;0.98;;;15.60;1.00;;;;;;5062822;28;20049;-37
2023/01/06 13:09:25;;;;;;;4.78;0.85;;;15.60;1.00;;;;;;5055736;28;20504;-38
2023/01/06 13:11:52;;;;;;;5.70;1.90;;;15.60;1.00;;;;;;5073191;28;20124;-40
2023/01/06 13:14:34;;;;;;;3.75;1.20;;;15.60;1.00;;;;;;5073058;28;20045;-38
2023/01/06 13:17:43;;;;;;;8.25;1.15;;;15.60;1.00;;;;;;5073134;28;20044;-38
2023/01/06 13:20:24;;;;;;;8.38;1.98;;;15.60;1.00;;;;;;4991663;28;20201;-38
2023/01/06 13:23:03;;;;;;;5.13;1.48;;;15.60;1.00;;;;;;4991197;28;20047;-36
2023/01/06 13:25:40;;;;;;;6.90;1.67;;;15.60;1.00;;;;;;5046943;28;20083;-37
2023/01/06 13:28:25;;;;;;;5.57;1.73;;;15.60;1.00;;;;;;5054986;28;20135;-38
2023/01/06 13:31:29;;;;;;;6.15;0.75;;;15.60;1.00;;;;;;5073023;28;20036;-38
2023/01/06 13:34:10;;;;;;;7.35;1.70;;;15.60;1.00;;;;;;5072556;28;20441;-38